PWSweather.com
Personal Weather Stations
Station Observations
265NC
Va2kh, Stcasimir, QC G0A 3L0

Va2khStcasimir, QC G0A 3L0

Lat: 46.65839, Lon: -72.13905

Elevation: 105

Station Type: National Geographic 265NC

http://www.qsl.net/va2kh

High Low Average
Temperature 84.6°F29.2°F 62.4°F16.9°F 70.3°F21.3°F
Dew Point 68.7°F20.4°F 59.5°F15.3°F 63.2°F17.3°F
Winds 7.0 mph E11.3 mph E 0.5 mph 0.8 mph 3.3 mph 5.3 mph
Wind Gusts 19.7 mph31.7 mph 3.8 mph6.1 mph 10.8 mph17.4 mph
Humidity 94% 59% 79%
Pressure 30.32 in1026.80 in 30.25 in1024.40 in -
Precipitation 0.00 in0.00 in - -
Hour Temp Dew Point Humidity Winds Wind Gusts Pressure Precip Precip Rate Daily Precip Total
12:00 AM 67.3°F19.6°C 59.8°F15.4°C 77% 5.3 mph ESE8.5 kmh ESE 12.1 mph19.5 kmh 30.27 in1025.1 mb 0.00 in0.0 mm 0.00 in/hr0.0 mm/hr 0.00 in0.0 mm
12:01 AM 67.3°F19.6°C 59.8°F15.4°C 77% 5.1 mph ESE8.2 kmh ESE 12.1 mph19.5 kmh 30.27 in1025.1 mb 0.00 in0.0 mm 0.00 in/hr0.0 mm/hr 0.00 in0.0 mm
12:15 AM 66.9°F19.4°C 59.5°F15.3°C 77% 5.3 mph E8.5 kmh E 12.1 mph19.5 kmh 30.26 in1024.7 mb 0.00 in0.0 mm 0.00 in/hr0.0 mm/hr 0.00 in0.0 mm
12:30 AM 66.6°F19.2°C 59.5°F15.3°C 78% 5.4 mph SE8.7 kmh SE 12.1 mph19.5 kmh 30.26 in1024.7 mb 0.00 in0.0 mm 0.00 in/hr0.0 mm/hr 0.00 in0.0 mm
12:45 AM 66.2°F19.0°C 59.5°F15.3°C 79% 4.9 mph ESE7.9 kmh ESE 12.1 mph19.5 kmh 30.26 in1024.7 mb 0.00 in0.0 mm 0.00 in/hr0.0 mm/hr 0.00 in0.0 mm
01:00 AM 66.0°F18.9°C 59.7°F15.4°C 80% 3.9 mph E6.3 kmh E 9.8 mph15.8 kmh 30.27 in1025.1 mb 0.00 in0.0 mm 0.00 in/hr0.0 mm/hr 0.00 in0.0 mm
01:15 AM 65.8°F18.8°C 59.9°F15.5°C 81% 4.2 mph E6.8 kmh E 9.8 mph15.8 kmh 30.26 in1024.7 mb 0.00 in0.0 mm 0.00 in/hr0.0 mm/hr 0.00 in0.0 mm
01:30 AM 65.8°F18.8°C 59.9°F15.5°C 81% 4.4 mph E7.1 kmh E 11.4 mph18.3 kmh 30.26 in1024.7 mb 0.00 in0.0 mm 0.00 in/hr0.0 mm/hr 0.00 in0.0 mm
01:45 AM 66.2°F19.0°C 60.2°F15.7°C 81% 4.6 mph E7.4 kmh E 12.1 mph19.5 kmh 30.26 in1024.7 mb 0.00 in0.0 mm 0.00 in/hr0.0 mm/hr 0.00 in0.0 mm
02:00 AM 66.4°F19.1°C 60.4°F15.8°C 81% 5.2 mph E8.4 kmh E 13.0 mph20.9 kmh 30.26 in1024.7 mb 0.00 in0.0 mm 0.00 in/hr0.0 mm/hr 0.00 in0.0 mm
02:15 AM 66.4°F19.1°C 60.4°F15.8°C 81% 4.9 mph E7.9 kmh E 12.1 mph19.5 kmh 30.26 in1024.7 mb 0.00 in0.0 mm 0.00 in/hr0.0 mm/hr 0.00 in0.0 mm
02:30 AM 66.4°F19.1°C 60.4°F15.8°C 81% 5.8 mph E9.3 kmh E 12.1 mph19.5 kmh 30.26 in1024.7 mb 0.00 in0.0 mm 0.00 in/hr0.0 mm/hr 0.00 in0.0 mm
02:45 AM 65.8°F18.8°C 60.2°F15.7°C 82% 5.7 mph E9.2 kmh E 14.5 mph23.3 kmh 30.26 in1024.7 mb 0.00 in0.0 mm 0.00 in/hr0.0 mm/hr 0.00 in0.0 mm
03:00 AM 65.7°F18.7°C 60.4°F15.8°C 83% 4.2 mph E6.8 kmh E 11.4 mph18.3 kmh 30.26 in1024.7 mb 0.00 in0.0 mm 0.00 in/hr0.0 mm/hr 0.00 in0.0 mm
03:15 AM 65.7°F18.7°C 60.4°F15.8°C 83% 5.1 mph E8.2 kmh E 11.4 mph18.3 kmh 30.25 in1024.4 mb 0.00 in0.0 mm 0.00 in/hr0.0 mm/hr 0.00 in0.0 mm
03:30 AM 65.5°F18.6°C 60.5°F15.8°C 84% 4.2 mph E6.8 kmh E 10.7 mph17.2 kmh 30.26 in1024.7 mb 0.00 in0.0 mm 0.00 in/hr0.0 mm/hr 0.00 in0.0 mm
03:45 AM 65.3°F18.5°C 60.4°F15.8°C 84% 4.1 mph E6.6 kmh E 14.5 mph23.3 kmh 30.26 in1024.7 mb 0.00 in0.0 mm 0.00 in/hr0.0 mm/hr 0.00 in0.0 mm
04:00 AM 64.8°F18.2°C 60.2°F15.7°C 85% 3.4 mph E5.5 kmh E 10.7 mph17.2 kmh 30.27 in1025.1 mb 0.00 in0.0 mm 0.00 in/hr0.0 mm/hr 0.00 in0.0 mm
04:15 AM 64.0°F17.8°C 60.1°F15.6°C 87% 2.1 mph E3.4 kmh E 6.9 mph11.1 kmh 30.26 in1024.7 mb 0.00 in0.0 mm 0.00 in/hr0.0 mm/hr 0.00 in0.0 mm
04:30 AM 63.7°F17.6°C 59.8°F15.4°C 87% 1.5 mph E2.4 kmh E 5.4 mph8.7 kmh 30.26 in1024.7 mb 0.00 in0.0 mm 0.00 in/hr0.0 mm/hr 0.00 in0.0 mm
04:45 AM 63.3°F17.4°C 60.0°F15.6°C 89% 2.3 mph E3.7 kmh E 5.4 mph8.7 kmh 30.26 in1024.7 mb 0.00 in0.0 mm 0.00 in/hr0.0 mm/hr 0.00 in0.0 mm
05:00 AM 63.1°F17.3°C 60.2°F15.7°C 90% 1.6 mph E2.6 kmh E 5.4 mph8.7 kmh 30.27 in1025.1 mb 0.00 in0.0 mm 0.00 in/hr0.0 mm/hr 0.00 in0.0 mm
05:15 AM 62.8°F17.1°C 59.8°F15.4°C 90% 2.2 mph ESE3.5 kmh ESE 6.9 mph11.1 kmh 30.27 in1025.1 mb 0.00 in0.0 mm 0.00 in/hr0.0 mm/hr 0.00 in0.0 mm
05:30 AM 62.8°F17.1°C 60.1°F15.6°C 91% 3.0 mph E4.8 kmh E 9.8 mph15.8 kmh 30.27 in1025.1 mb 0.00 in0.0 mm 0.00 in/hr0.0 mm/hr 0.00 in0.0 mm
05:45 AM 62.8°F17.1°C 60.1°F15.6°C 91% 2.2 mph ESE3.5 kmh ESE 6.9 mph11.1 kmh 30.28 in1025.4 mb 0.00 in0.0 mm 0.00 in/hr0.0 mm/hr 0.00 in0.0 mm
06:00 AM 62.4°F16.9°C 60.1°F15.6°C 92% 1.7 mph NE2.7 kmh NE 6.0 mph9.7 kmh 30.29 in1025.7 mb 0.00 in0.0 mm 0.00 in/hr0.0 mm/hr 0.00 in0.0 mm
06:15 AM 62.6°F17.0°C 60.3°F15.7°C 92% 2.3 mph ENE3.7 kmh ENE 6.9 mph11.1 kmh 30.29 in1025.7 mb 0.00 in0.0 mm 0.00 in/hr0.0 mm/hr 0.00 in0.0 mm
06:30 AM 62.8°F17.1°C 60.4°F15.8°C 92% 2.2 mph NE3.5 kmh NE 6.0 mph9.7 kmh 30.29 in1025.7 mb 0.00 in0.0 mm 0.00 in/hr0.0 mm/hr 0.00 in0.0 mm
06:45 AM 63.0°F17.2°C 60.6°F15.9°C 92% 3.6 mph E5.8 kmh E 11.4 mph18.3 kmh 30.29 in1025.7 mb 0.00 in0.0 mm 0.00 in/hr0.0 mm/hr 0.00 in0.0 mm
06:46 AM 63.0°F17.2°C 60.6°F15.9°C 92% 3.0 mph E4.8 kmh E 11.4 mph18.3 kmh 30.29 in1025.7 mb 0.00 in0.0 mm 0.00 in/hr0.0 mm/hr 0.00 in0.0 mm
07:00 AM 63.3°F17.4°C 60.7°F15.9°C 91% 4.0 mph E6.4 kmh E 12.1 mph19.5 kmh 30.30 in1026.1 mb 0.00 in0.0 mm 0.00 in/hr0.0 mm/hr 0.00 in0.0 mm
07:15 AM 63.9°F17.7°C 60.9°F16.1°C 90% 4.1 mph E6.6 kmh E 10.7 mph17.2 kmh 30.30 in1026.1 mb 0.00 in0.0 mm 0.00 in/hr0.0 mm/hr 0.00 in0.0 mm
07:30 AM 64.9°F18.3°C 61.3°F16.3°C 88% 3.8 mph E6.1 kmh E 10.7 mph17.2 kmh 30.30 in1026.1 mb 0.00 in0.0 mm 0.00 in/hr0.0 mm/hr 0.00 in0.0 mm
07:36 AM 65.8°F18.8°C 61.9°F16.6°C 87% 4.0 mph E6.4 kmh E 10.7 mph17.2 kmh 30.30 in1026.1 mb 0.00 in0.0 mm 0.00 in/hr0.0 mm/hr 0.00 in0.0 mm
07:45 AM 66.6°F19.2°C 61.9°F16.6°C 85% 4.4 mph ENE7.1 kmh ENE 13.6 mph21.9 kmh 30.30 in1026.1 mb 0.00 in0.0 mm 0.00 in/hr0.0 mm/hr 0.00 in0.0 mm
08:00 AM 67.1°F19.5°C 61.8°F16.6°C 83% 4.7 mph E7.6 kmh E 16.8 mph27.0 kmh 30.30 in1026.1 mb 0.00 in0.0 mm 0.00 in/hr0.0 mm/hr 0.00 in0.0 mm
08:15 AM 67.5°F19.7°C 62.1°F16.7°C 83% 6.3 mph ESE10.1 kmh ESE 19.0 mph30.6 kmh 30.31 in1026.4 mb 0.00 in0.0 mm 0.00 in/hr0.0 mm/hr 0.00 in0.0 mm
08:30 AM 67.8°F19.9°C 61.8°F16.6°C 81% 4.6 mph E7.4 kmh E 14.5 mph23.3 kmh 30.31 in1026.4 mb 0.00 in0.0 mm 0.00 in/hr0.0 mm/hr 0.00 in0.0 mm
08:45 AM 68.2°F20.1°C 62.2°F16.8°C 81% 5.2 mph SE8.4 kmh SE 18.3 mph29.5 kmh 30.31 in1026.4 mb 0.00 in0.0 mm 0.00 in/hr0.0 mm/hr 0.00 in0.0 mm
09:00 AM 68.7°F20.4°C 62.3°F16.8°C 80% 7.0 mph E11.3 kmh E 19.7 mph31.7 kmh 30.31 in1026.4 mb 0.00 in0.0 mm 0.00 in/hr0.0 mm/hr 0.00 in0.0 mm
09:15 AM 69.8°F21.0°C 62.3°F16.8°C 77% 5.8 mph E9.3 kmh E 16.8 mph27.0 kmh 30.32 in1026.8 mb 0.00 in0.0 mm 0.00 in/hr0.0 mm/hr 0.00 in0.0 mm
09:30 AM 70.3°F21.3°C 62.1°F16.7°C 75% 5.2 mph E8.4 kmh E 16.8 mph27.0 kmh 30.31 in1026.4 mb 0.00 in0.0 mm 0.00 in/hr0.0 mm/hr 0.00 in0.0 mm
09:45 AM 70.9°F21.6°C 63.0°F17.2°C 76% 3.7 mph SE6.0 kmh SE 13.0 mph20.9 kmh 30.31 in1026.4 mb 0.00 in0.0 mm 0.00 in/hr0.0 mm/hr 0.00 in0.0 mm
10:00 AM 72.1°F22.3°C 64.2°F17.9°C 76% 3.7 mph ENE6.0 kmh ENE 13.0 mph20.9 kmh 30.31 in1026.4 mb 0.00 in0.0 mm 0.00 in/hr0.0 mm/hr 0.00 in0.0 mm
10:15 AM 72.0°F22.2°C 63.6°F17.6°C 75% 4.2 mph SE6.8 kmh SE 17.4 mph28.0 kmh 30.31 in1026.4 mb 0.00 in0.0 mm 0.00 in/hr0.0 mm/hr 0.00 in0.0 mm
10:30 AM 71.1°F21.7°C 63.5°F17.5°C 77% 3.7 mph E6.0 kmh E 12.1 mph19.5 kmh 30.31 in1026.4 mb 0.00 in0.0 mm 0.00 in/hr0.0 mm/hr 0.00 in0.0 mm
10:45 AM 71.2°F21.8°C 63.7°F17.6°C 77% 5.8 mph E9.3 kmh E 14.5 mph23.3 kmh 30.31 in1026.4 mb 0.00 in0.0 mm 0.00 in/hr0.0 mm/hr 0.00 in0.0 mm
11:00 AM 72.0°F22.2°C 64.4°F18.0°C 77% 4.2 mph E6.8 kmh E 15.2 mph24.5 kmh 30.31 in1026.4 mb 0.00 in0.0 mm 0.00 in/hr0.0 mm/hr 0.00 in0.0 mm
11:15 AM 73.2°F22.9°C 65.2°F18.4°C 76% 2.8 mph SSE4.5 kmh SSE 15.2 mph24.5 kmh 30.31 in1026.4 mb 0.00 in0.0 mm 0.00 in/hr0.0 mm/hr 0.00 in0.0 mm
11:30 AM 73.8°F23.2°C 64.6°F18.1°C 73% 3.1 mph SSW5.0 kmh SSW 15.2 mph24.5 kmh 30.30 in1026.1 mb 0.00 in0.0 mm 0.00 in/hr0.0 mm/hr 0.00 in0.0 mm
11:45 AM 72.9°F22.7°C 64.5°F18.1°C 75% 2.5 mph NE4.0 kmh NE 12.1 mph19.5 kmh 30.30 in1026.1 mb 0.00 in0.0 mm 0.00 in/hr0.0 mm/hr 0.00 in0.0 mm
12:00 PM 71.8°F22.1°C 64.2°F17.9°C 77% 2.6 mph E4.2 kmh E 13.0 mph20.9 kmh 30.30 in1026.1 mb 0.00 in0.0 mm 0.00 in/hr0.0 mm/hr 0.00 in0.0 mm
12:15 PM 72.7°F22.6°C 65.1°F18.4°C 77% 3.1 mph E5.0 kmh E 11.4 mph18.3 kmh 30.30 in1026.1 mb 0.00 in0.0 mm 0.00 in/hr0.0 mm/hr 0.00 in0.0 mm
12:30 PM 74.3°F23.5°C 66.7°F19.3°C 77% 0.9 mph E1.4 kmh E 6.9 mph11.1 kmh 30.30 in1026.1 mb 0.00 in0.0 mm 0.00 in/hr0.0 mm/hr 0.00 in0.0 mm
12:45 PM 75.7°F24.3°C 66.5°F19.2°C 73% 3.2 mph E5.1 kmh E 11.4 mph18.3 kmh 30.30 in1026.1 mb 0.00 in0.0 mm 0.00 in/hr0.0 mm/hr 0.00 in0.0 mm
01:00 PM 76.5°F24.7°C 67.2°F19.6°C 73% 2.1 mph SE3.4 kmh SE 8.3 mph13.4 kmh 30.29 in1025.7 mb 0.00 in0.0 mm 0.00 in/hr0.0 mm/hr 0.00 in0.0 mm
01:15 PM 77.2°F25.1°C 67.1°F19.5°C 71% 2.9 mph ESE4.7 kmh ESE 9.8 mph15.8 kmh 30.29 in1025.7 mb 0.00 in0.0 mm 0.00 in/hr0.0 mm/hr 0.00 in0.0 mm
01:30 PM 77.5°F25.3°C 67.4°F19.7°C 71% 2.2 mph E3.5 kmh E 9.2 mph14.8 kmh 30.29 in1025.7 mb 0.00 in0.0 mm 0.00 in/hr0.0 mm/hr 0.00 in0.0 mm
01:45 PM 78.4°F25.8°C 67.0°F19.4°C 68% 2.2 mph ENE3.5 kmh ENE 13.0 mph20.9 kmh 30.29 in1025.7 mb 0.00 in0.0 mm 0.00 in/hr0.0 mm/hr 0.00 in0.0 mm
02:00 PM 78.6°F25.9°C 67.2°F19.6°C 68% 2.4 mph SE3.9 kmh SE 11.4 mph18.3 kmh 30.28 in1025.4 mb 0.00 in0.0 mm 0.00 in/hr0.0 mm/hr 0.00 in0.0 mm
02:15 PM 78.6°F25.9°C 67.2°F19.6°C 68% 3.8 mph SE6.1 kmh SE 12.1 mph19.5 kmh 30.28 in1025.4 mb 0.00 in0.0 mm 0.00 in/hr0.0 mm/hr 0.00 in0.0 mm
02:30 PM 78.8°F26.0°C 67.4°F19.7°C 68% 1.6 mph ESE2.6 kmh ESE 9.8 mph15.8 kmh 30.28 in1025.4 mb 0.00 in0.0 mm 0.00 in/hr0.0 mm/hr 0.00 in0.0 mm
02:45 PM 78.6°F25.9°C 67.2°F19.6°C 68% 3.0 mph SE4.8 kmh SE 13.0 mph20.9 kmh 30.27 in1025.1 mb 0.00 in0.0 mm 0.00 in/hr0.0 mm/hr 0.00 in0.0 mm
03:00 PM 79.0°F26.1°C 67.6°F19.8°C 68% 3.8 mph ESE6.1 kmh ESE 11.4 mph18.3 kmh 30.27 in1025.1 mb 0.00 in0.0 mm 0.00 in/hr0.0 mm/hr 0.00 in0.0 mm
03:15 PM 79.2°F26.2°C 67.3°F19.6°C 67% 3.0 mph SE4.8 kmh SE 10.7 mph17.2 kmh 30.28 in1025.4 mb 0.00 in0.0 mm 0.00 in/hr0.0 mm/hr 0.00 in0.0 mm
03:30 PM 79.9°F26.6°C 67.6°F19.8°C 66% 3.2 mph SSE5.1 kmh SSE 12.1 mph19.5 kmh 30.27 in1025.1 mb 0.00 in0.0 mm 0.00 in/hr0.0 mm/hr 0.00 in0.0 mm
03:45 PM 80.1°F26.7°C 67.7°F19.8°C 66% 4.0 mph ESE6.4 kmh ESE 15.2 mph24.5 kmh 30.27 in1025.1 mb 0.00 in0.0 mm 0.00 in/hr0.0 mm/hr 0.00 in0.0 mm
04:00 PM 79.7°F26.5°C 67.4°F19.7°C 66% 2.2 mph NE3.5 kmh NE 11.4 mph18.3 kmh 30.27 in1025.1 mb 0.00 in0.0 mm 0.00 in/hr0.0 mm/hr 0.00 in0.0 mm
04:15 PM 80.6°F27.0°C 67.8°F19.9°C 65% 1.9 mph SE3.1 kmh SE 9.8 mph15.8 kmh 30.27 in1025.1 mb 0.00 in0.0 mm 0.00 in/hr0.0 mm/hr 0.00 in0.0 mm
04:30 PM 83.3°F28.5°C 68.0°F20.0°C 60% 3.7 mph E6.0 kmh E 15.2 mph24.5 kmh 30.26 in1024.7 mb 0.00 in0.0 mm 0.00 in/hr0.0 mm/hr 0.00 in0.0 mm
04:45 PM 81.3°F27.4°C 67.6°F19.8°C 63% 4.0 mph SE6.4 kmh SE 14.5 mph23.3 kmh 30.26 in1024.7 mb 0.00 in0.0 mm 0.00 in/hr0.0 mm/hr 0.00 in0.0 mm
05:00 PM 84.6°F29.2°C 68.7°F20.4°C 59% 2.5 mph SE4.0 kmh SE 10.7 mph17.2 kmh 30.26 in1024.7 mb 0.00 in0.0 mm 0.00 in/hr0.0 mm/hr 0.00 in0.0 mm
05:15 PM 81.5°F27.5°C 66.8°F19.3°C 61% 3.2 mph E5.1 kmh E 13.6 mph21.9 kmh 30.26 in1024.7 mb 0.00 in0.0 mm 0.00 in/hr0.0 mm/hr 0.00 in0.0 mm
05:30 PM 77.7°F25.4°C 65.9°F18.8°C 67% 4.3 mph E6.9 kmh E 14.5 mph23.3 kmh 30.27 in1025.1 mb 0.00 in0.0 mm 0.00 in/hr0.0 mm/hr 0.00 in0.0 mm
05:45 PM 79.9°F26.6°C 68.0°F20.0°C 67% 1.6 mph SE2.6 kmh SE 8.3 mph13.4 kmh 30.27 in1025.1 mb 0.00 in0.0 mm 0.00 in/hr0.0 mm/hr 0.00 in0.0 mm
06:00 PM 81.5°F27.5°C 66.8°F19.3°C 61% 4.9 mph E7.9 kmh E 14.5 mph23.3 kmh 30.27 in1025.1 mb 0.00 in0.0 mm 0.00 in/hr0.0 mm/hr 0.00 in0.0 mm
06:15 PM 79.7°F26.5°C 66.5°F19.2°C 64% 2.9 mph ESE4.7 kmh ESE 11.4 mph18.3 kmh 30.27 in1025.1 mb 0.00 in0.0 mm 0.00 in/hr0.0 mm/hr 0.00 in0.0 mm
06:30 PM 79.3°F26.3°C 66.1°F18.9°C 64% 3.4 mph SE5.5 kmh SE 12.1 mph19.5 kmh 30.27 in1025.1 mb 0.00 in0.0 mm 0.00 in/hr0.0 mm/hr 0.00 in0.0 mm
06:45 PM 77.5°F25.3°C 66.2°F19.0°C 68% 3.6 mph E5.8 kmh E 13.0 mph20.9 kmh 30.28 in1025.4 mb 0.00 in0.0 mm 0.00 in/hr0.0 mm/hr 0.00 in0.0 mm
07:00 PM 78.3°F25.7°C 65.6°F18.7°C 65% 3.7 mph ENE6.0 kmh ENE 9.8 mph15.8 kmh 30.28 in1025.4 mb 0.00 in0.0 mm 0.00 in/hr0.0 mm/hr 0.00 in0.0 mm
07:15 PM 75.7°F24.3°C 64.9°F18.3°C 69% 3.2 mph E5.1 kmh E 9.2 mph14.8 kmh 30.29 in1025.7 mb 0.00 in0.0 mm 0.00 in/hr0.0 mm/hr 0.00 in0.0 mm
07:30 PM 73.9°F23.3°C 64.0°F17.8°C 71% 3.0 mph SE4.8 kmh SE 9.2 mph14.8 kmh 30.29 in1025.7 mb 0.00 in0.0 mm 0.00 in/hr0.0 mm/hr 0.00 in0.0 mm
07:45 PM 71.6°F22.0°C 63.3°F17.4°C 75% 0.5 mph S0.8 kmh S 4.5 mph7.2 kmh 30.29 in1025.7 mb 0.00 in0.0 mm 0.00 in/hr0.0 mm/hr 0.00 in0.0 mm
08:00 PM 69.8°F21.0°C 63.0°F17.2°C 79% 1.3 mph SE2.1 kmh SE 6.0 mph9.7 kmh 30.29 in1025.7 mb 0.00 in0.0 mm 0.00 in/hr0.0 mm/hr 0.00 in0.0 mm
08:15 PM 68.9°F20.5°C 63.2°F17.3°C 82% 1.5 mph NE2.4 kmh NE 4.5 mph7.2 kmh 30.30 in1026.1 mb 0.00 in0.0 mm 0.00 in/hr0.0 mm/hr 0.00 in0.0 mm
08:30 PM 68.0°F20.0°C 63.0°F17.2°C 84% 2.5 mph E4.0 kmh E 6.0 mph9.7 kmh 30.30 in1026.1 mb 0.00 in0.0 mm 0.00 in/hr0.0 mm/hr 0.00 in0.0 mm
08:45 PM 67.5°F19.7°C 63.2°F17.3°C 86% 3.0 mph NE4.8 kmh NE 6.9 mph11.1 kmh 30.30 in1026.1 mb 0.00 in0.0 mm 0.00 in/hr0.0 mm/hr 0.00 in0.0 mm
09:00 PM 66.9°F19.4°C 62.6°F17.0°C 86% 2.2 mph E3.5 kmh E 6.9 mph11.1 kmh 30.30 in1026.1 mb 0.00 in0.0 mm 0.00 in/hr0.0 mm/hr 0.00 in0.0 mm
09:15 PM 66.4°F19.1°C 62.4°F16.9°C 87% 2.3 mph E3.7 kmh E 6.0 mph9.7 kmh 30.30 in1026.1 mb 0.00 in0.0 mm 0.00 in/hr0.0 mm/hr 0.00 in0.0 mm
09:30 PM 65.8°F18.8°C 62.2°F16.8°C 88% 1.2 mph NE1.9 kmh NE 6.0 mph9.7 kmh 30.31 in1026.4 mb 0.00 in0.0 mm 0.00 in/hr0.0 mm/hr 0.00 in0.0 mm
09:45 PM 65.3°F18.5°C 62.0°F16.7°C 89% 0.7 mph NE1.1 kmh NE 5.4 mph8.7 kmh 30.30 in1026.1 mb 0.00 in0.0 mm 0.00 in/hr0.0 mm/hr 0.00 in0.0 mm
10:00 PM 65.3°F18.5°C 62.3°F16.8°C 90% 1.5 mph E2.4 kmh E 6.9 mph11.1 kmh 30.30 in1026.1 mb 0.00 in0.0 mm 0.00 in/hr0.0 mm/hr 0.00 in0.0 mm
10:15 PM 65.5°F18.6°C 62.5°F16.9°C 90% 3.2 mph E5.1 kmh E 7.6 mph12.2 kmh 30.30 in1026.1 mb 0.00 in0.0 mm 0.00 in/hr0.0 mm/hr 0.00 in0.0 mm
10:30 PM 65.5°F18.6°C 62.5°F16.9°C 90% 2.9 mph E4.7 kmh E 7.6 mph12.2 kmh 30.30 in1026.1 mb 0.00 in0.0 mm 0.00 in/hr0.0 mm/hr 0.00 in0.0 mm
10:45 PM 65.5°F18.6°C 62.5°F16.9°C 90% 2.6 mph E4.2 kmh E 6.0 mph9.7 kmh 30.30 in1026.1 mb 0.00 in0.0 mm 0.00 in/hr0.0 mm/hr 0.00 in0.0 mm
11:00 PM 65.1°F18.4°C 62.5°F16.9°C 91% 1.3 mph ESE2.1 kmh ESE 5.4 mph8.7 kmh 30.30 in1026.1 mb 0.00 in0.0 mm 0.00 in/hr0.0 mm/hr 0.00 in0.0 mm
11:15 PM 64.6°F18.1°C 62.2°F16.8°C 92% 0.8 mph E1.3 kmh E 3.8 mph6.1 kmh 30.30 in1026.1 mb 0.00 in0.0 mm 0.00 in/hr0.0 mm/hr 0.00 in0.0 mm
11:30 PM 64.4°F18.0°C 62.7°F17.1°C 94% 0.7 mph E1.1 kmh E 3.8 mph6.1 kmh 30.30 in1026.1 mb 0.00 in0.0 mm 0.00 in/hr0.0 mm/hr 0.00 in0.0 mm
11:45 PM 64.2°F17.9°C 62.5°F16.9°C 94% 1.2 mph ENE1.9 kmh ENE 5.4 mph8.7 kmh 30.30 in1026.1 mb 0.00 in0.0 mm 0.00 in/hr0.0 mm/hr 0.00 in0.0 mm